La Romana, Dominican Republic
Current Conditions -  °F | °C
As of 6:00 PM on Sunday 23 Nov 2014 (Local Time) from MDLR Reporting Station
Rain Showers Rain Showers  
Wind Chill: 77°   Ceiling: Unl
Heat Index: 78°   Visibility: 4mi
Dew Point: 72°   Wind: 12mph
Humidity: 83%   Direction: 90°E
Pressure: 29.94"   Gusts: NA
Location:  18.43°N, 68.97°W
Report Text: MDLR 232200Z 09010KT 7000 SH FEW018CB SCT018 25/22 Q1014 CB/NE
Loading
Personal Weather Stations






























Interactive Weather Map New forecast layout! Learn more

10-Day Weather Forecast

Advertisements
Track Severe Weather on mobile